createdAt,value
2023-04-22T00:00:18.775Z,59.75
2023-04-22T00:02:48.659Z,59.83
2023-04-22T00:05:20.676Z,59.88
2023-04-22T00:07:50.489Z,59.90
2023-04-22T00:10:37.970Z,60.31
2023-04-22T00:13:23.983Z,59.80
2023-04-22T00:15:53.318Z,59.64
2023-04-22T00:18:22.613Z,59.53
2023-04-22T00:20:53.405Z,59.78
2023-04-22T00:23:22.826Z,59.72
2023-04-22T00:25:52.098Z,59.83
2023-04-22T00:28:21.400Z,60.05
2023-04-22T00:30:50.633Z,59.98
2023-04-22T00:33:19.909Z,60.20
2023-04-22T00:35:49.249Z,60.02
2023-04-22T00:38:38.361Z,60.09
2023-04-22T00:41:26.430Z,59.82
2023-04-22T00:43:55.920Z,59.73
2023-04-22T00:46:26.211Z,59.78
2023-04-22T00:49:14.035Z,59.79
2023-04-22T00:52:01.237Z,59.52
2023-04-22T00:54:32.711Z,59.73
2023-04-22T00:57:02.697Z,59.52
2023-04-22T00:59:50.242Z,59.78
2023-04-22T01:02:36.618Z,59.17
2023-04-22T01:05:06.712Z,59.11
2023-04-22T01:07:36.638Z,59.28
2023-04-22T01:10:09.940Z,59.38
2023-04-22T01:12:57.444Z,59.25
2023-04-22T01:15:27.200Z,59.09
2023-04-22T01:18:14.297Z,59.28
2023-04-22T01:20:43.860Z,59.02
2023-04-22T01:23:19.488Z,59.15
2023-04-22T01:25:49.103Z,59.12
2023-04-22T01:28:19.379Z,59.04
2023-04-22T01:30:50.533Z,59.26
2023-04-22T01:33:20.034Z,59.20
2023-04-22T01:35:49.409Z,58.68
2023-04-22T01:38:20.165Z,58.68
2023-04-22T01:41:06.507Z,58.54
2023-04-22T01:43:54.038Z,58.71
2023-04-22T01:46:23.552Z,58.31
2023-04-22T01:48:52.905Z,58.49
2023-04-22T01:51:22.477Z,58.51
2023-04-22T01:53:53.713Z,58.09
2023-04-22T01:56:22.981Z,57.96
2023-04-22T01:58:52.531Z,57.84
2023-04-22T02:01:21.890Z,57.84
2023-04-22T02:03:51.467Z,57.49
2023-04-22T02:06:21.243Z,57.47
2023-04-22T02:08:52.914Z,57.54
2023-04-22T02:11:25.599Z,57.46
2023-04-22T02:13:54.790Z,57.24
2023-04-22T02:16:25.199Z,57.36
2023-04-22T02:18:58.630Z,56.79
2023-04-22T02:21:33.050Z,56.81
2023-04-22T02:24:04.422Z,56.96
2023-04-22T02:26:34.490Z,56.63
2023-04-22T15:21:40.083Z,43.16
2023-04-22T15:24:27.665Z,42.94
2023-04-22T15:27:15.352Z,43.04
2023-04-22T15:29:46.851Z,42.91
2023-04-22T15:32:19.052Z,43.53
2023-04-22T15:35:08.024Z,43.92
2023-04-22T15:37:55.740Z,43.91
2023-04-22T15:40:24.935Z,43.69
2023-04-22T15:42:57.085Z,44.04
2023-04-22T15:45:44.532Z,44.23
2023-04-22T15:48:16.050Z,44.30
2023-04-22T15:50:45.150Z,44.80
2023-04-22T15:53:15.777Z,44.85
2023-04-22T15:55:52.090Z,45.10
2023-04-22T15:58:21.244Z,45.29
2023-04-22T16:00:50.389Z,45.33
2023-04-22T16:03:19.534Z,45.34
2023-04-22T16:05:48.710Z,45.36
2023-04-22T16:08:19.514Z,45.72
2023-04-22T16:11:06.854Z,45.71
2023-04-22T16:13:36.056Z,45.59
2023-04-22T16:16:05.193Z,45.78
2023-04-22T16:18:34.959Z,45.85
2023-04-22T16:21:06.862Z,46.21
2023-04-22T16:24:30.027Z,46.49
2023-04-22T16:27:00.622Z,46.15
2023-04-22T16:29:47.425Z,46.42
2023-04-22T16:32:16.539Z,46.69
2023-04-22T16:35:04.823Z,46.85
2023-04-22T16:37:35.792Z,46.90
2023-04-22T16:40:05.453Z,47.07
2023-04-22T16:45:22.933Z,47.19
2023-04-22T16:48:10.424Z,47.54
2023-04-22T16:50:40.572Z,47.30
2023-04-22T16:53:10.434Z,47.37
2023-04-22T16:55:56.341Z,47.65
2023-04-22T16:58:45.397Z,47.89
2023-04-22T17:01:31.800Z,48.04
2023-04-22T17:04:01.300Z,47.80
2023-04-22T17:06:48.497Z,48.22
2023-04-22T17:09:34.754Z,48.42
2023-04-22T17:12:04.946Z,48.36
2023-04-22T17:14:35.613Z,48.58
2023-04-22T17:17:07.752Z,48.53
2023-04-22T17:19:39.914Z,48.83
2023-04-22T17:22:09.216Z,49.09
2023-04-22T17:24:57.099Z,48.96
2023-04-22T17:27:44.155Z,49.20
2023-04-22T17:30:32.527Z,49.44
2023-04-22T17:33:04.975Z,49.19
2023-04-22T17:35:54.937Z,49.58
2023-04-22T17:38:41.123Z,49.24
2023-04-22T17:41:10.400Z,49.49
2023-04-22T17:43:42.135Z,49.89
2023-04-22T17:46:12.999Z,49.83
2023-04-22T17:49:02.118Z,50.26
2023-04-22T17:51:32.823Z,50.34
2023-04-22T17:54:03.659Z,50.71
2023-04-22T17:56:32.874Z,50.60
2023-04-22T17:59:02.002Z,50.59
2023-04-22T18:01:32.782Z,50.92
2023-04-22T18:04:02.304Z,50.97
2023-04-22T18:06:32.884Z,51.09
2023-04-22T18:09:01.973Z,51.23
2023-04-22T18:11:51.087Z,51.37
2023-04-22T18:14:21.191Z,51.34
2023-04-22T18:16:51.820Z,51.57
2023-04-22T18:19:39.628Z,51.91
2023-04-22T18:22:08.911Z,51.81
2023-04-22T18:24:38.072Z,51.80
2023-04-22T18:27:25.780Z,52.23
2023-04-22T18:29:55.694Z,52.20
2023-04-22T18:32:43.238Z,52.19
2023-04-22T18:35:12.488Z,52.40
2023-04-22T18:38:00.020Z,52.58
2023-04-22T18:40:29.170Z,52.41
2023-04-22T18:42:58.239Z,52.57
2023-04-22T18:45:44.270Z,52.75
2023-04-22T18:48:33.230Z,52.64
2023-04-22T18:51:02.339Z,52.89
2023-04-22T18:53:31.521Z,52.82
2023-04-22T18:56:18.766Z,53.06
2023-04-22T18:58:47.856Z,53.11
2023-04-22T19:01:17.348Z,53.38
2023-04-22T19:03:48.196Z,53.71
2023-04-22T19:06:17.382Z,53.73
2023-04-22T19:08:46.735Z,54.05
2023-04-22T19:11:34.052Z,54.11
2023-04-22T19:14:03.411Z,53.76
2023-04-22T19:16:49.367Z,53.83
2023-04-22T19:19:37.063Z,53.79
2023-04-22T19:22:06.523Z,53.60
2023-04-22T19:24:36.097Z,53.98
2023-04-22T19:27:22.045Z,54.17
2023-04-22T19:29:52.206Z,54.27
2023-04-22T19:32:21.817Z,54.52
2023-04-22T19:35:09.429Z,55.02
2023-04-22T19:37:55.396Z,55.05
2023-04-22T19:40:24.480Z,54.83
2023-04-22T19:42:53.757Z,55.16
2023-04-22T19:45:23.117Z,55.23
2023-04-22T19:47:52.809Z,55.38
2023-04-22T19:50:24.258Z,55.08
2023-04-22T19:53:12.260Z,55.37
2023-04-22T19:55:59.113Z,55.06
2023-04-22T19:58:29.997Z,54.75
2023-04-22T20:01:16.598Z,55.21
2023-04-22T20:04:05.673Z,54.99
2023-04-22T20:06:37.471Z,54.93
2023-04-22T20:09:07.663Z,55.14
2023-04-22T20:11:37.509Z,55.28
2023-04-22T20:14:09.671Z,55.54
2023-04-22T20:16:39.757Z,55.21
2023-04-22T20:19:09.346Z,55.52
2023-04-22T20:21:41.612Z,55.59
2023-04-22T20:24:19.433Z,55.44
2023-04-22T20:26:49.996Z,55.36
2023-04-22T20:29:20.200Z,55.63
2023-04-22T20:31:49.565Z,55.72
2023-04-22T20:34:37.873Z,55.72
2023-04-22T20:37:10.887Z,55.75
2023-04-22T20:39:41.432Z,55.50
2023-04-22T20:42:29.321Z,55.69
2023-04-22T20:44:58.403Z,55.77
2023-04-22T20:47:45.428Z,55.81
2023-04-22T20:50:15.376Z,56.04
2023-04-22T20:52:46.185Z,56.20
2023-04-22T20:55:15.354Z,56.25
2023-04-22T20:57:44.538Z,56.38
2023-04-22T21:00:32.759Z,56.94
2023-04-22T21:03:02.416Z,56.56
2023-04-22T21:05:31.905Z,56.38
2023-04-22T21:08:19.491Z,56.61
2023-04-22T21:11:07.126Z,56.77
2023-04-22T21:13:36.976Z,56.74
2023-04-22T21:16:25.384Z,56.54
2023-04-22T21:18:59.701Z,56.40
2023-04-22T21:21:32.334Z,56.37
2023-04-22T21:24:05.256Z,56.50
2023-04-22T21:26:35.320Z,56.45
2023-04-22T21:29:04.881Z,56.82
2023-04-22T21:31:34.602Z,57.23
2023-04-22T21:34:06.872Z,57.21
2023-04-22T21:36:36.102Z,57.31
2023-04-22T21:39:07.325Z,56.95
2023-04-22T21:41:37.027Z,56.78
2023-04-22T21:44:06.960Z,57.30
2023-04-22T21:46:36.093Z,57.17
2023-04-22T21:49:05.308Z,56.86
2023-04-22T21:51:34.455Z,57.08
2023-04-22T21:54:03.769Z,57.09
2023-04-22T21:56:35.191Z,57.10
2023-04-22T21:59:04.296Z,57.13
2023-04-22T22:01:51.634Z,57.11
2023-04-22T22:04:21.063Z,56.97
2023-04-22T22:06:50.588Z,57.27
2023-04-22T22:09:36.993Z,57.26
2023-04-22T22:12:26.265Z,57.37
2023-04-22T22:14:55.561Z,57.49
2023-04-22T22:17:25.942Z,57.07
2023-04-22T22:19:56.401Z,57.45
2023-04-22T22:23:02.125Z,57.57
2023-04-22T22:25:31.269Z,57.44
2023-04-22T22:28:01.936Z,57.44
2023-04-22T22:30:31.625Z,58.08
2023-04-22T22:33:00.787Z,58.13
2023-04-22T22:35:29.925Z,58.38
2023-04-22T22:37:59.171Z,58.26
2023-04-22T22:40:46.649Z,58.54
2023-04-22T22:43:17.262Z,58.38
2023-04-22T22:46:21.902Z,58.43
2023-04-22T22:48:51.130Z,57.94
2023-04-22T22:51:20.525Z,58.65
2023-04-22T22:53:49.603Z,58.13
2023-04-22T22:56:21.381Z,58.89
2023-04-22T22:58:51.960Z,58.78
2023-04-22T23:01:21.436Z,59.09
2023-04-22T23:03:50.962Z,59.59
2023-04-22T23:06:37.508Z,58.95
2023-04-22T23:09:07.916Z,59.21
2023-04-22T23:11:55.973Z,59.10
2023-04-22T23:14:28.647Z,59.32
2023-04-22T23:16:57.837Z,58.81
2023-04-22T23:19:28.117Z,59.01
2023-04-22T23:21:57.826Z,59.10
2023-04-22T23:24:27.471Z,59.05
2023-04-22T23:26:57.704Z,59.58
2023-04-22T23:29:28.933Z,59.37
2023-04-22T23:31:58.848Z,58.86
2023-04-22T23:34:28.328Z,59.16
2023-04-22T23:37:16.547Z,59.22
2023-04-22T23:40:22.585Z,59.49
2023-04-22T23:43:08.868Z,58.95
2023-04-22T23:45:39.832Z,58.85
2023-04-22T23:48:09.434Z,59.05
2023-04-22T23:50:39.109Z,59.18
2023-04-22T23:53:08.239Z,59.20
2023-04-22T23:55:38.348Z,58.80
2023-04-22T23:58:07.680Z,59.21
